F/V Colombine — FVGA — position and weather

sailwx.info

Track history (hours):
 
Tides and Currents Weather Stations Pressure Air Temp Water Temp Dewpoint Dewpoint Depression Visibility Wind Speed Wind Dir Waves Ship Positions

F/V Colombine

Last reported at 2018-Feb-25 00:02 UTC. Time now 2018-Feb-25 09:54 UTC.
Position N 47°15' W 002°35'.

Length 22 m.

Type: Fishing. MMSI: 227866000.

Date/timePositionNaut miles runAvg speedWind from/ knotsBaromVisibWave heightAir tempDewpointWater temp
2018-Feb-25 00:02N 47°15' W 002°35'2 9.2
2018-Feb-24 23:50N 47°17' W 002°35'5 0.1
2018-Feb-23 09:06N 47°21' W 002°31'0 0.0
2018-Feb-23 07:06N 47°21' W 002°31'0 0.0
2018-Feb-23 06:41N 47°21' W 002°31'0 0.0
2018-Feb-23 06:27N 47°21' W 002°31'0 0.0
2018-Feb-23 06:00N 47°21' W 002°31'0 0.0
2018-Feb-23 05:29N 47°21' W 002°31'0 0.0
2018-Feb-23 04:59N 47°21' W 002°31'0 0.0
2018-Feb-23 04:30N 47°21' W 002°31'0 0.0
2018-Feb-23 04:00N 47°21' W 002°31'0 0.0
2018-Feb-23 03:30N 47°21' W 002°31'0 0.0
2018-Feb-23 02:59N 47°21' W 002°31'0 0.0
2018-Feb-23 02:29N 47°21' W 002°31'0 0.0
2018-Feb-23 02:00N 47°21' W 002°31'0 0.0
2018-Feb-23 01:29N 47°21' W 002°31'0 0.0
2018-Feb-23 01:00N 47°21' W 002°31'0 0.0
2018-Feb-23 00:30N 47°21' W 002°31'0 0.0
2018-Feb-23 00:00N 47°21' W 002°31'0 0.0
2018-Feb-22 23:30N 47°21' W 002°31'0 0.0
2018-Feb-22 23:00N 47°21' W 002°31'0 0.0
2018-Feb-22 22:30N 47°21' W 002°31'0 0.0
2018-Feb-22 22:00N 47°21' W 002°31'0 0.0
2018-Feb-22 21:30N 47°21' W 002°31'0 0.0
2018-Feb-22 21:00N 47°21' W 002°31'0 0.0
2018-Feb-22 20:30N 47°21' W 002°31'0 0.0
2018-Feb-22 19:59N 47°21' W 002°31'0 0.0
2018-Feb-22 19:30N 47°21' W 002°31'0 0.0
2018-Feb-22 19:00N 47°21' W 002°31'0 0.0
2018-Feb-22 18:29N 47°21' W 002°31'0 0.0
2018-Feb-22 17:10N 47°21' W 002°31'0 2.8
2018-Feb-22 17:00N 47°20' W 002°31'5 9.2
2018-Feb-22 16:30N 47°16' W 002°34'88 2.1
2018-Feb-20 22:36N 45°60' W 001°32'110.6
2018-Feb-20 22:31N 46°01' W 001°31'510.6
2018-Feb-20 22:01N 46°05' W 001°26'510.4
2018-Feb-20 21:31N 46°06' W 001°18'5 9.0
2018-Feb-20 21:00N 46°09' W 001°13'0 0.0
2018-Feb-20 20:28N 46°09' W 001°13'0 0.0
2018-Feb-20 20:00N 46°09' W 001°13'0 0.0
2018-Feb-20 19:30N 46°09' W 001°13'0 0.9
2018-Feb-20 19:01N 46°09' W 001°14'4 8.4
2018-Feb-20 18:31N 46°06' W 001°18'5 9.2
2018-Feb-20 18:01N 46°05' W 001°25'4 8.5
2018-Feb-20 17:30N 46°01' W 001°29'  
2018-Feb-17 17:17N 45°60' W 001°29'3 9.7
2018-Feb-17 17:00N 46°02' W 001°28'4 8.5
2018-Feb-17 16:31N 46°05' W 001°23'4 8.8
2018-Feb-17 16:01N 46°06' W 001°17'4 7.3
2018-Feb-17 15:31N 46°09' W 001°13'0 0.0
2018-Feb-17 15:01N 46°09' W 001°13'0 0.0
2018-Feb-17 14:30N 46°09' W 001°13'0 0.0
2018-Feb-17 14:00N 46°09' W 001°13'0 0.0
2018-Feb-17 13:30N 46°09' W 001°13'0 0.0
2018-Feb-17 13:01N 46°09' W 001°13'0 0.5
2018-Feb-17 12:31N 46°09' W 001°14'4 9.0
2018-Feb-17 12:01N 46°06' W 001°19'5 9.6
2018-Feb-17 11:31N 46°05' W 001°26'5 9.5
2018-Feb-17 11:01N 46°02' W 001°31'4 8.4
2018-Feb-17 10:30N 45°60' W 001°36'  
Track history (hours):
 
Tides and Currents Weather Stations Pressure Air Temp Water Temp Dewpoint Dewpoint Depression Visibility Wind Speed Wind Dir Waves Ship Positions

F/V Colombine

Last reported at 2018-Feb-25 00:02 UTC. Time now 2018-Feb-25 09:54 UTC.
Position N 47°15' W 002°35'.

Length 22 m.

Type: Fishing. MMSI: 227866000.

Date/timePositionNaut miles runAvg speedWind from/ knotsBaromVisibWave heightAir tempDewpointWater temp
2018-Feb-25 00:02N 47°15' W 002°35'2 9.2
2018-Feb-24 23:50N 47°17' W 002°35'5 0.1
2018-Feb-23 09:06N 47°21' W 002°31'0 0.0
2018-Feb-23 07:06N 47°21' W 002°31'0 0.0
2018-Feb-23 06:41N 47°21' W 002°31'0 0.0
2018-Feb-23 06:27N 47°21' W 002°31'0 0.0
2018-Feb-23 06:00N 47°21' W 002°31'0 0.0
2018-Feb-23 05:29N 47°21' W 002°31'0 0.0
2018-Feb-23 04:59N 47°21' W 002°31'0 0.0
2018-Feb-23 04:30N 47°21' W 002°31'0 0.0
2018-Feb-23 04:00N 47°21' W 002°31'0 0.0
2018-Feb-23 03:30N 47°21' W 002°31'0 0.0
2018-Feb-23 02:59N 47°21' W 002°31'0 0.0
2018-Feb-23 02:29N 47°21' W 002°31'0 0.0
2018-Feb-23 02:00N 47°21' W 002°31'0 0.0
2018-Feb-23 01:29N 47°21' W 002°31'0 0.0
2018-Feb-23 01:00N 47°21' W 002°31'0 0.0
2018-Feb-23 00:30N 47°21' W 002°31'0 0.0
2018-Feb-23 00:00N 47°21' W 002°31'0 0.0
2018-Feb-22 23:30N 47°21' W 002°31'0 0.0
2018-Feb-22 23:00N 47°21' W 002°31'0 0.0
2018-Feb-22 22:30N 47°21' W 002°31'0 0.0
2018-Feb-22 22:00N 47°21' W 002°31'0 0.0
2018-Feb-22 21:30N 47°21' W 002°31'0 0.0
2018-Feb-22 21:00N 47°21' W 002°31'0 0.0
2018-Feb-22 20:30N 47°21' W 002°31'0 0.0
2018-Feb-22 19:59N 47°21' W 002°31'0 0.0
2018-Feb-22 19:30N 47°21' W 002°31'0 0.0
2018-Feb-22 19:00N 47°21' W 002°31'0 0.0
2018-Feb-22 18:29N 47°21' W 002°31'0 0.0
2018-Feb-22 17:10N 47°21' W 002°31'0 2.8
2018-Feb-22 17:00N 47°20' W 002°31'5 9.2
2018-Feb-22 16:30N 47°16' W 002°34'88 2.1
2018-Feb-20 22:36N 45°60' W 001°32'110.6
2018-Feb-20 22:31N 46°01' W 001°31'510.6
2018-Feb-20 22:01N 46°05' W 001°26'510.4
2018-Feb-20 21:31N 46°06' W 001°18'5 9.0
2018-Feb-20 21:00N 46°09' W 001°13'0 0.0
2018-Feb-20 20:28N 46°09' W 001°13'0 0.0
2018-Feb-20 20:00N 46°09' W 001°13'0 0.0
2018-Feb-20 19:30N 46°09' W 001°13'0 0.9
2018-Feb-20 19:01N 46°09' W 001°14'4 8.4
2018-Feb-20 18:31N 46°06' W 001°18'5 9.2
2018-Feb-20 18:01N 46°05' W 001°25'4 8.5
2018-Feb-20 17:30N 46°01' W 001°29'  
2018-Feb-17 17:17N 45°60' W 001°29'3 9.7
2018-Feb-17 17:00N 46°02' W 001°28'4 8.5
2018-Feb-17 16:31N 46°05' W 001°23'4 8.8
2018-Feb-17 16:01N 46°06' W 001°17'4 7.3
2018-Feb-17 15:31N 46°09' W 001°13'0 0.0
2018-Feb-17 15:01N 46°09' W 001°13'0 0.0
2018-Feb-17 14:30N 46°09' W 001°13'0 0.0
2018-Feb-17 14:00N 46°09' W 001°13'0 0.0
2018-Feb-17 13:30N 46°09' W 001°13'0 0.0
2018-Feb-17 13:01N 46°09' W 001°13'0 0.5
2018-Feb-17 12:31N 46°09' W 001°14'4 9.0
2018-Feb-17 12:01N 46°06' W 001°19'5 9.6
2018-Feb-17 11:31N 46°05' W 001°26'5 9.5
2018-Feb-17 11:01N 46°02' W 001°31'4 8.4
2018-Feb-17 10:30N 45°60' W 001°36'  

Dump ship's entire track history